Time;durP1;ratioP1;P1;durP2;ratioP2;P2;SDS_P1;SDS_P2;PMS_P1;PMS_P2;Temp;Humidity;BMP_temperature;BMP_pressure;BME280_temperature;BME280_humidity;BME280_pressure;Samples;Min_cycle;Max_cycle;Signal;HPM_P1;HPM_P2
2021/12/10 00:02:07;;;;;;;95.40;34.55;;;;;;;;;;2285029;59;21135;-81
2021/12/10 00:04:36;;;;;;;111.22;38.22;;;;;;;;;;2285213;59;21045;-80
2021/12/10 00:07:06;;;;;;;101.30;34.40;;;;;;;;;;2284972;59;21217;-81
2021/12/10 00:09:35;;;;;;;97.62;35.00;;;;;;;;;;2299332;55;21106;-80
2021/12/10 00:12:06;;;;;;;103.75;34.97;;;;;;;;;;2284952;59;21049;-80
2021/12/10 00:14:34;;;;;;;99.65;35.75;;;;;;;;;;2285240;59;21081;-81
2021/12/10 00:17:03;;;;;;;104.18;36.40;;;;;;;;;;2284760;59;21048;-81
2021/12/10 00:19:35;;;;;;;101.40;35.35;;;;;;;;;;2285013;59;21136;-81
2021/12/10 00:22:06;;;;;;;99.22;36.85;;;;;;;;;;2285099;59;21069;-81
2021/12/10 00:24:33;;;;;;;98.70;37.83;;;;;;;;;;2285448;57;21053;-80
2021/12/10 00:27:04;;;;;;;102.90;36.42;;;;;;;;;;2285401;59;21124;-81
2021/12/10 00:29:31;;;;;;;105.40;35.78;;;;;;;;;;2285104;59;21116;-81
2021/12/10 00:32:02;;;;;;;103.35;34.83;;;;;;;;;;2284947;59;21041;-81
2021/12/10 00:34:30;;;;;;;105.25;34.20;;;;;;;;;;2285221;56;21065;-81
2021/12/10 00:36:58;;;;;;;106.85;38.72;;;;;;;;;;2285367;59;21116;-81
2021/12/10 00:39:28;;;;;;;94.50;36.70;;;;;;;;;;2285159;59;21073;-80
2021/12/10 00:41:55;;;;;;;108.60;38.22;;;;;;;;;;2285389;59;21120;-80
2021/12/10 00:44:22;;;;;;;105.03;38.50;;;;;;;;;;2285541;59;21044;-81
2021/12/10 00:46:50;;;;;;;108.53;39.10;;;;;;;;;;2312898;55;21144;-81
2021/12/10 00:49:17;;;;;;;109.12;39.15;;;;;;;;;;2285077;57;21109;-81
2021/12/10 00:51:44;;;;;;;114.25;37.28;;;;;;;;;;2284802;59;21053;-81
2021/12/10 00:54:12;;;;;;;110.68;38.08;;;;;;;;;;2285093;59;21105;-81
2021/12/10 00:56:41;;;;;;;106.37;37.72;;;;;;;;;;2303615;55;21148;-81
2021/12/10 00:59:09;;;;;;;99.50;36.08;;;;;;;;;;2284985;59;21069;-80
2021/12/10 01:01:36;;;;;;;111.82;37.03;;;;;;;;;;2305735;55;21640;-80
2021/12/10 01:04:05;;;;;;;108.20;35.83;;;;;;;;;;2284729;59;21076;-81
2021/12/10 01:06:32;;;;;;;120.75;39.33;;;;;;;;;;2285121;59;21047;-82
2021/12/10 01:09:01;;;;;;;102.97;37.30;;;;;;;;;;2285054;59;21061;-81
2021/12/10 01:11:29;;;;;;;103.18;37.22;;;;;;;;;;2284965;59;21072;-81
2021/12/10 01:14:03;;;;;;;101.97;37.35;;;;;;;;;;2284726;59;21052;-81
2021/12/10 01:24:54;;;;;;;94.00;35.38;;;;;;;;;;2305849;55;21569;-82
2021/12/10 01:27:29;;;;;;;100.87;34.13;;;;;;;;;;2284784;59;21057;-81
2021/12/10 01:29:58;;;;;;;94.65;34.80;;;;;;;;;;2285256;55;21124;-81
2021/12/10 01:32:26;;;;;;;96.57;34.53;;;;;;;;;;2285130;59;21053;-80
2021/12/10 01:34:53;;;;;;;112.75;37.20;;;;;;;;;;2284819;59;21045;-80
2021/12/10 01:37:21;;;;;;;96.75;35.42;;;;;;;;;;2284296;59;21048;-81
2021/12/10 01:39:48;;;;;;;101.50;34.67;;;;;;;;;;2284931;59;21595;-80
2021/12/10 01:42:27;;;;;;;87.32;33.20;;;;;;;;;;2285196;59;21236;-81
2021/12/10 01:44:55;;;;;;;83.90;31.85;;;;;;;;;;2285770;59;21112;-81
2021/12/10 01:47:24;;;;;;;101.97;37.03;;;;;;;;;;2285123;59;21116;-81
2021/12/10 01:49:51;;;;;;;98.85;36.63;;;;;;;;;;2285302;59;21044;-81
2021/12/10 01:52:19;;;;;;;105.03;36.53;;;;;;;;;;2285213;59;21140;-81
2021/12/10 01:54:48;;;;;;;94.82;34.78;;;;;;;;;;2298756;55;21136;-81
2021/12/10 01:57:16;;;;;;;84.45;32.67;;;;;;;;;;2380647;55;21036;-80
2021/12/10 01:59:44;;;;;;;98.97;36.58;;;;;;;;;;2285403;59;21124;-81
2021/12/10 02:02:12;;;;;;;97.45;34.78;;;;;;;;;;2285277;59;21117;-80
2021/12/10 02:04:42;;;;;;;91.57;32.30;;;;;;;;;;2285416;59;21143;-81
2021/12/10 02:07:10;;;;;;;97.82;35.92;;;;;;;;;;2285384;59;21073;-81
2021/12/10 02:09:37;;;;;;;99.60;34.58;;;;;;;;;;2284878;59;21053;-81
2021/12/10 02:12:05;;;;;;;92.15;33.90;;;;;;;;;;2285326;59;21049;-80
2021/12/10 02:14:32;;;;;;;96.07;33.35;;;;;;;;;;2300423;55;21041;-80
2021/12/10 02:16:59;;;;;;;93.62;35.17;;;;;;;;;;2285170;59;21124;-81
2021/12/10 02:19:27;;;;;;;97.90;35.50;;;;;;;;;;2285200;59;21125;-81
2021/12/10 02:21:54;;;;;;;95.20;33.47;;;;;;;;;;2308976;55;21065;-81
2021/12/10 02:24:21;;;;;;;102.55;35.95;;;;;;;;;;2285353;59;21057;-81
2021/12/10 02:26:50;;;;;;;90.93;33.83;;;;;;;;;;2284891;59;21061;-82
2021/12/10 02:29:18;;;;;;;102.07;37.42;;;;;;;;;;2285256;59;21199;-80
2021/12/10 02:31:45;;;;;;;100.32;33.58;;;;;;;;;;2285005;56;21557;-81
2021/12/10 02:34:12;;;;;;;90.82;33.28;;;;;;;;;;2284978;59;21052;-80
2021/12/10 02:36:42;;;;;;;92.43;34.42;;;;;;;;;;2285140;59;21116;-80
2021/12/10 02:39:09;;;;;;;97.53;33.97;;;;;;;;;;2284920;59;21116;-80
2021/12/10 02:41:36;;;;;;;97.50;34.95;;;;;;;;;;2285069;59;21133;-80
2021/12/10 02:44:04;;;;;;;84.03;30.95;;;;;;;;;;2285258;59;21108;-81
2021/12/10 02:46:31;;;;;;;102.22;34.35;;;;;;;;;;2319728;55;21045;-81
2021/12/10 02:48:58;;;;;;;93.60;34.65;;;;;;;;;;2284535;59;21128;-80
2021/12/10 02:51:26;;;;;;;95.20;33.50;;;;;;;;;;2285269;59;21688;-80
2021/12/10 02:53:54;;;;;;;94.80;32.25;;;;;;;;;;2348135;55;21152;-80
2021/12/10 02:56:22;;;;;;;101.43;35.10;;;;;;;;;;2340140;55;21081;-82
2021/12/10 02:58:53;;;;;;;94.22;37.65;;;;;;;;;;2285081;59;21362;-81
2021/12/10 03:01:23;;;;;;;85.78;33.00;;;;;;;;;;2285404;59;21128;-81
2021/12/10 03:03:50;;;;;;;87.30;33.75;;;;;;;;;;2285096;59;21056;-81
2021/12/10 03:06:18;;;;;;;95.03;31.77;;;;;;;;;;2285082;59;21041;-81
2021/12/10 03:08:46;;;;;;;97.00;34.92;;;;;;;;;;2285291;59;21112;-80
2021/12/10 03:11:15;;;;;;;84.03;32.55;;;;;;;;;;2285179;59;21061;-81
2021/12/10 03:13:42;;;;;;;98.47;32.83;;;;;;;;;;2285407;59;21113;-81
2021/12/10 03:16:09;;;;;;;92.53;34.83;;;;;;;;;;2284770;59;21072;-81
2021/12/10 03:18:37;;;;;;;96.28;37.75;;;;;;;;;;2285413;59;21120;-81
2021/12/10 03:21:08;;;;;;;87.25;32.58;;;;;;;;;;2300416;55;21053;-81
2021/12/10 03:23:36;;;;;;;87.45;32.05;;;;;;;;;;2285297;56;21155;-80
2021/12/10 03:26:04;;;;;;;91.85;33.80;;;;;;;;;;2285661;59;21069;-81
2021/12/10 03:28:31;;;;;;;92.37;33.88;;;;;;;;;;2285442;59;21528;-81
2021/12/10 03:30:58;;;;;;;83.78;33.50;;;;;;;;;;2285002;59;21045;-81
2021/12/10 03:33:25;;;;;;;92.12;32.55;;;;;;;;;;2285205;59;21128;-81
2021/12/10 03:35:52;;;;;;;110.18;35.75;;;;;;;;;;2284976;59;21141;-80
2021/12/10 03:38:20;;;;;;;98.53;34.33;;;;;;;;;;2284527;59;21563;-81
2021/12/10 03:40:47;;;;;;;88.03;33.50;;;;;;;;;;2284643;59;21112;-81
2021/12/10 03:43:15;;;;;;;96.78;35.00;;;;;;;;;;2285218;59;22269;-81
2021/12/10 03:45:44;;;;;;;104.12;35.72;;;;;;;;;;2285100;59;21057;-81
2021/12/10 03:48:12;;;;;;;98.15;35.22;;;;;;;;;;2285111;59;21056;-81
2021/12/10 03:50:40;;;;;;;96.90;31.65;;;;;;;;;;2283922;59;21112;-81
2021/12/10 03:53:07;;;;;;;89.03;33.83;;;;;;;;;;2321054;55;21108;-80
2021/12/10 03:55:34;;;;;;;90.40;34.50;;;;;;;;;;2284716;59;21120;-81
2021/12/10 03:58:01;;;;;;;92.53;32.85;;;;;;;;;;2285397;59;21069;-80
2021/12/10 04:00:30;;;;;;;103.90;36.05;;;;;;;;;;2285132;59;21207;-81
2021/12/10 04:02:58;;;;;;;92.30;31.00;;;;;;;;;;2285415;59;21036;-81
2021/12/10 04:05:25;;;;;;;86.45;31.45;;;;;;;;;;2285439;59;21105;-81
2021/12/10 04:07:52;;;;;;;84.93;32.95;;;;;;;;;;2293819;55;22074;-81
2021/12/10 04:10:20;;;;;;;95.12;34.17;;;;;;;;;;2285105;59;21152;-80
2021/12/10 04:12:47;;;;;;;88.60;32.67;;;;;;;;;;2285067;59;21025;-80
2021/12/10 04:15:17;;;;;;;84.00;31.80;;;;;;;;;;2285111;59;21589;-80
2021/12/10 04:17:44;;;;;;;89.25;32.58;;;;;;;;;;2284982;59;21104;-81
2021/12/10 04:20:12;;;;;;;82.43;31.40;;;;;;;;;;2285274;56;21064;-80
2021/12/10 04:22:39;;;;;;;76.55;31.40;;;;;;;;;;2429369;53;21139;-82
2021/12/10 04:25:08;;;;;;;89.03;32.85;;;;;;;;;;2305213;58;21639;-81
2021/12/10 04:27:35;;;;;;;99.13;36.45;;;;;;;;;;2305719;58;21146;-81
2021/12/10 04:30:04;;;;;;;87.62;33.40;;;;;;;;;;2542765;54;21118;-78
2021/12/10 04:32:30;;;;;;;92.78;34.63;;;;;;;;;;2320426;57;21053;-79
2021/12/10 04:34:57;;;;;;;89.35;33.25;;;;;;;;;;2331628;57;21049;-82
2021/12/10 04:37:24;;;;;;;90.47;31.85;;;;;;;;;;2331947;57;21064;-82
2021/12/10 04:39:51;;;;;;;98.55;35.22;;;;;;;;;;2331405;57;21148;-81
2021/12/10 04:42:20;;;;;;;90.57;32.55;;;;;;;;;;2575658;54;21057;-81
2021/12/10 04:44:47;;;;;;;90.57;34.72;;;;;;;;;;2575602;54;21124;-81
2021/12/10 04:47:14;;;;;;;90.55;31.85;;;;;;;;;;2575565;54;21038;-82
2021/12/10 04:49:41;;;;;;;91.00;32.05;;;;;;;;;;2575066;54;21565;-81
2021/12/10 04:52:09;;;;;;;83.07;31.95;;;;;;;;;;2331798;57;21595;-81
2021/12/10 04:54:36;;;;;;;79.93;30.92;;;;;;;;;;2331753;57;21069;-81
2021/12/10 04:57:04;;;;;;;96.85;33.28;;;;;;;;;;2576131;54;21065;-83
2021/12/10 04:59:32;;;;;;;93.93;32.92;;;;;;;;;;2331697;57;21069;-81
2021/12/10 05:02:00;;;;;;;87.60;30.88;;;;;;;;;;2575650;54;21133;-80
2021/12/10 05:04:28;;;;;;;90.78;32.05;;;;;;;;;;2331286;57;21160;-83
2021/12/10 05:06:55;;;;;;;80.72;29.63;;;;;;;;;;2331967;57;21116;-80
2021/12/10 05:09:23;;;;;;;91.85;32.88;;;;;;;;;;2575200;54;21057;-81
2021/12/10 05:11:51;;;;;;;86.05;32.55;;;;;;;;;;2331634;57;21112;-82
2021/12/10 05:14:19;;;;;;;95.65;33.83;;;;;;;;;;2331648;57;21117;-81
2021/12/10 05:16:47;;;;;;;90.82;32.55;;;;;;;;;;2575307;54;21053;-81
2021/12/10 05:19:16;;;;;;;93.55;32.22;;;;;;;;;;2331360;57;21101;-82
2021/12/10 05:21:45;;;;;;;84.75;30.88;;;;;;;;;;2575514;54;21104;-82
2021/12/10 05:24:12;;;;;;;81.50;31.83;;;;;;;;;;2331870;57;21030;-81
2021/12/10 05:26:39;;;;;;;78.12;29.27;;;;;;;;;;2575705;54;21105;-83
2021/12/10 05:29:06;;;;;;;83.82;30.95;;;;;;;;;;2331831;57;21059;-82
2021/12/10 05:31:35;;;;;;;98.50;34.15;;;;;;;;;;2331668;57;21161;-81
2021/12/10 05:34:02;;;;;;;83.68;31.05;;;;;;;;;;2331682;57;21061;-82
2021/12/10 05:36:29;;;;;;;86.30;31.27;;;;;;;;;;2331697;57;21054;-80
2021/12/10 05:38:56;;;;;;;85.47;29.87;;;;;;;;;;2574847;54;21144;-82
2021/12/10 05:41:23;;;;;;;91.95;33.15;;;;;;;;;;2331815;57;21061;-80
2021/12/10 05:43:50;;;;;;;90.65;30.02;;;;;;;;;;2331653;57;21120;-82
2021/12/10 05:46:18;;;;;;;93.47;33.80;;;;;;;;;;2575699;54;21026;-81
2021/12/10 05:48:45;;;;;;;87.12;32.03;;;;;;;;;;2575942;54;21704;-80
2021/12/10 05:51:13;;;;;;;91.28;32.17;;;;;;;;;;2575809;54;21101;-82
2021/12/10 05:53:40;;;;;;;88.35;30.58;;;;;;;;;;2332077;57;21111;-81
2021/12/10 05:56:07;;;;;;;92.75;30.73;;;;;;;;;;2575835;54;21102;-82
2021/12/10 05:58:36;;;;;;;87.72;32.30;;;;;;;;;;2575968;54;21046;-81
2021/12/10 06:01:05;;;;;;;92.35;32.92;;;;;;;;;;2331527;57;21660;-81
2021/12/10 06:03:31;;;;;;;89.43;30.00;;;;;;;;;;2332073;57;21068;-80
2021/12/10 06:05:59;;;;;;;83.43;30.00;;;;;;;;;;2575169;54;21077;-80
2021/12/10 06:08:26;;;;;;;82.85;28.95;;;;;;;;;;2331853;57;21145;-81
2021/12/10 06:10:54;;;;;;;98.22;32.45;;;;;;;;;;2330877;57;21049;-82
2021/12/10 06:13:21;;;;;;;86.93;28.58;;;;;;;;;;2331718;57;21093;-82
2021/12/10 06:15:48;;;;;;;97.78;33.20;;;;;;;;;;2332047;57;21084;-82
2021/12/10 06:18:16;;;;;;;81.28;29.20;;;;;;;;;;2331449;57;21128;-82
2021/12/10 06:20:44;;;;;;;82.95;31.87;;;;;;;;;;2332168;57;21041;-81
2021/12/10 06:23:11;;;;;;;86.47;31.87;;;;;;;;;;2576097;54;21044;-82
2021/12/10 06:25:39;;;;;;;78.20;29.42;;;;;;;;;;2331530;57;21053;-82
2021/12/10 06:28:07;;;;;;;86.22;28.10;;;;;;;;;;2331299;57;21088;-80
2021/12/10 06:30:37;;;;;;;87.57;30.67;;;;;;;;;;2331823;57;21041;-81
2021/12/10 06:33:06;;;;;;;78.32;30.45;;;;;;;;;;2333597;57;21116;-82
2021/12/10 06:35:34;;;;;;;87.90;30.92;;;;;;;;;;2332520;57;21195;-82
2021/12/10 06:38:01;;;;;;;87.88;28.38;;;;;;;;;;2332372;57;21045;-82
2021/12/10 06:40:29;;;;;;;83.80;29.60;;;;;;;;;;2332111;57;21045;-81
2021/12/10 06:42:56;;;;;;;88.00;30.12;;;;;;;;;;2332555;57;21037;-83
2021/12/10 06:45:27;;;;;;;82.93;30.12;;;;;;;;;;2576122;54;21050;-81
2021/12/10 06:47:58;;;;;;;82.45;29.63;;;;;;;;;;2332794;57;21053;-82
2021/12/10 06:50:26;;;;;;;81.47;28.62;;;;;;;;;;2576108;54;21093;-82
2021/12/10 06:52:53;;;;;;;81.72;28.70;;;;;;;;;;2332510;57;21077;-82
2021/12/10 06:55:21;;;;;;;85.15;30.23;;;;;;;;;;2332569;57;21145;-83
2021/12/10 06:57:49;;;;;;;73.75;26.92;;;;;;;;;;2332463;57;21136;-81
2021/12/10 07:00:18;;;;;;;90.32;30.88;;;;;;;;;;2576308;54;21105;-81
2021/12/10 07:02:46;;;;;;;90.68;29.80;;;;;;;;;;2332437;57;21073;-82
2021/12/10 07:05:14;;;;;;;88.25;31.67;;;;;;;;;;2576729;54;21069;-81
2021/12/10 07:07:41;;;;;;;85.65;30.20;;;;;;;;;;2332397;57;21057;-81
2021/12/10 07:10:09;;;;;;;75.22;27.95;;;;;;;;;;2332312;57;21065;-81
2021/12/10 07:12:37;;;;;;;74.65;28.52;;;;;;;;;;2332574;57;21112;-82
2021/12/10 07:15:06;;;;;;;68.87;26.77;;;;;;;;;;2332375;57;21176;-82
2021/12/10 07:17:34;;;;;;;77.15;27.42;;;;;;;;;;2331966;57;21080;-81
2021/12/10 07:20:01;;;;;;;76.35;28.80;;;;;;;;;;2331428;57;21045;-84
2021/12/10 07:22:28;;;;;;;83.10;29.05;;;;;;;;;;2332226;57;21100;-82
2021/12/10 07:24:55;;;;;;;82.55;30.00;;;;;;;;;;2332194;57;21117;-83
2021/12/10 07:27:22;;;;;;;77.43;27.30;;;;;;;;;;2332226;57;21117;-78
2021/12/10 07:29:49;;;;;;;82.45;28.12;;;;;;;;;;2331745;57;21065;-81
2021/12/10 07:32:16;;;;;;;69.95;26.95;;;;;;;;;;2574919;54;21592;-80
2021/12/10 07:34:43;;;;;;;80.47;27.48;;;;;;;;;;2574777;54;21053;-81
2021/12/10 07:37:10;;;;;;;71.57;25.37;;;;;;;;;;2575039;54;21096;-80
2021/12/10 07:39:38;;;;;;;80.32;28.73;;;;;;;;;;2331152;57;21101;-81
2021/12/10 07:42:07;;;;;;;74.40;29.63;;;;;;;;;;2330558;57;21073;-81
2021/12/10 07:44:34;;;;;;;82.85;27.20;;;;;;;;;;2330431;57;21077;-80
2021/12/10 07:47:01;;;;;;;74.90;28.70;;;;;;;;;;2330062;57;21162;-80
2021/12/10 07:49:31;;;;;;;78.80;27.55;;;;;;;;;;2330460;57;21296;-80
2021/12/10 07:51:58;;;;;;;80.45;27.98;;;;;;;;;;2574774;54;21056;-82
2021/12/10 07:54:25;;;;;;;75.07;28.40;;;;;;;;;;2331173;57;21053;-80
2021/12/10 07:56:53;;;;;;;78.47;28.20;;;;;;;;;;2330738;57;21112;-79
2021/12/10 07:59:20;;;;;;;78.95;29.23;;;;;;;;;;2330661;57;21057;-82
2021/12/10 08:01:47;;;;;;;74.70;26.90;;;;;;;;;;2331342;57;21060;-79
2021/12/10 08:04:14;;;;;;;78.82;28.85;;;;;;;;;;2576117;54;21157;-78
2021/12/10 08:06:41;;;;;;;70.60;27.27;;;;;;;;;;2575572;54;21193;-79
2021/12/10 08:09:09;;;;;;;76.10;28.17;;;;;;;;;;2330670;57;21619;-80
2021/12/10 08:11:37;;;;;;;77.95;28.70;;;;;;;;;;2330732;57;21053;-80
2021/12/10 08:14:04;;;;;;;78.55;27.75;;;;;;;;;;2331120;57;21065;-80
2021/12/10 08:16:31;;;;;;;76.85;27.83;;;;;;;;;;2331329;57;21065;-79
2021/12/10 08:18:58;;;;;;;73.70;27.98;;;;;;;;;;2574619;54;21105;-81
2021/12/10 08:21:25;;;;;;;84.35;29.85;;;;;;;;;;2574924;54;21049;-80
2021/12/10 08:23:53;;;;;;;74.72;28.23;;;;;;;;;;2330719;57;21052;-79
2021/12/10 08:26:21;;;;;;;74.68;29.17;;;;;;;;;;2575004;54;21117;-82
2021/12/10 08:28:48;;;;;;;79.30;28.77;;;;;;;;;;2330285;57;21196;-78
2021/12/10 08:31:16;;;;;;;69.95;25.80;;;;;;;;;;2331047;57;21049;-79
2021/12/10 08:33:47;;;;;;;74.00;26.87;;;;;;;;;;2331351;57;21129;-80
2021/12/10 08:36:14;;;;;;;65.62;25.70;;;;;;;;;;2330977;57;21073;-79
2021/12/10 08:38:42;;;;;;;70.97;27.60;;;;;;;;;;2330702;57;21096;-80
2021/12/10 08:41:13;;;;;;;78.35;27.90;;;;;;;;;;2330976;57;21095;-81
2021/12/10 08:43:41;;;;;;;70.87;26.77;;;;;;;;;;2331411;57;21065;-80
2021/12/10 08:46:09;;;;;;;68.85;25.60;;;;;;;;;;2331975;57;21161;-80
2021/12/10 08:48:37;;;;;;;64.55;25.20;;;;;;;;;;2331523;57;21065;-79
2021/12/10 08:51:07;;;;;;;64.12;24.75;;;;;;;;;;2330853;57;21148;-80
2021/12/10 08:53:34;;;;;;;73.80;26.73;;;;;;;;;;2574612;54;21057;-79
2021/12/10 08:56:01;;;;;;;75.30;26.50;;;;;;;;;;2575747;54;21053;-80
2021/12/10 08:58:28;;;;;;;77.32;27.80;;;;;;;;;;2331385;57;21576;-79
2021/12/10 09:00:59;;;;;;;71.37;24.75;;;;;;;;;;2575076;54;21053;-80
2021/12/10 09:03:27;;;;;;;75.65;24.90;;;;;;;;;;2331742;57;21057;-78
2021/12/10 09:05:54;;;;;;;62.28;23.12;;;;;;;;;;2575882;54;21053;-79
2021/12/10 09:08:21;;;;;;;67.43;26.55;;;;;;;;;;2331695;57;21116;-78
2021/12/10 09:10:48;;;;;;;73.05;25.75;;;;;;;;;;2330759;57;21430;-80
2021/12/10 09:13:17;;;;;;;70.12;25.85;;;;;;;;;;2331618;57;21115;-78
2021/12/10 09:15:46;;;;;;;77.30;27.10;;;;;;;;;;2331769;57;21057;-80
2021/12/10 09:18:13;;;;;;;71.15;25.50;;;;;;;;;;2331073;57;21656;-80
2021/12/10 09:20:41;;;;;;;61.92;23.77;;;;;;;;;;2330931;57;21132;-79
2021/12/10 09:23:10;;;;;;;62.65;23.87;;;;;;;;;;2331333;57;21053;-80
2021/12/10 09:25:37;;;;;;;68.50;25.17;;;;;;;;;;2330766;57;21056;-81
2021/12/10 09:28:04;;;;;;;61.33;24.90;;;;;;;;;;2574774;54;21076;-83
2021/12/10 09:30:34;;;;;;;56.50;22.02;;;;;;;;;;2574309;54;21041;-80
2021/12/10 09:33:01;;;;;;;76.15;26.62;;;;;;;;;;2330680;57;21551;-79
2021/12/10 09:35:30;;;;;;;66.32;22.98;;;;;;;;;;2330988;57;21069;-79
2021/12/10 09:37:57;;;;;;;69.53;25.80;;;;;;;;;;2574770;54;21053;-80
2021/12/10 09:40:25;;;;;;;67.75;26.00;;;;;;;;;;2329326;57;21105;-79
2021/12/10 09:42:52;;;;;;;69.37;26.10;;;;;;;;;;2572730;54;21734;-79
2021/12/10 09:45:21;;;;;;;67.70;24.98;;;;;;;;;;2329438;57;21064;-79
2021/12/10 09:47:48;;;;;;;62.25;23.85;;;;;;;;;;2573902;54;21132;-80
2021/12/10 09:50:16;;;;;;;64.35;23.52;;;;;;;;;;2330446;57;21049;-81
2021/12/10 09:52:43;;;;;;;63.33;23.90;;;;;;;;;;2330606;57;21045;-79
2021/12/10 09:55:11;;;;;;;62.05;22.73;;;;;;;;;;2329837;57;21057;-80
2021/12/10 09:57:38;;;;;;;64.35;24.40;;;;;;;;;;2330420;57;21121;-80
2021/12/10 10:00:10;;;;;;;66.60;24.80;;;;;;;;;;2329040;57;21125;-80
2021/12/10 10:02:37;;;;;;;62.38;23.48;;;;;;;;;;2574833;54;21100;-80
2021/12/10 10:05:05;;;;;;;57.83;23.67;;;;;;;;;;2331197;57;21069;-79
2021/12/10 10:07:33;;;;;;;61.88;24.02;;;;;;;;;;2331918;57;21558;-82
2021/12/10 10:10:01;;;;;;;58.20;23.70;;;;;;;;;;2331087;57;21077;-79
2021/12/10 10:12:31;;;;;;;61.60;23.35;;;;;;;;;;2330381;57;21041;-79
2021/12/10 10:14:59;;;;;;;58.42;23.12;;;;;;;;;;2330479;57;21049;-78
2021/12/10 10:17:26;;;;;;;61.80;22.40;;;;;;;;;;2330275;57;21093;-78
2021/12/10 10:19:53;;;;;;;58.53;22.23;;;;;;;;;;2330167;57;21097;-77
2021/12/10 10:22:22;;;;;;;58.83;23.12;;;;;;;;;;2330536;57;21057;-79
2021/12/10 10:24:49;;;;;;;58.75;21.85;;;;;;;;;;2573801;54;21057;-79
2021/12/10 10:27:19;;;;;;;63.87;22.45;;;;;;;;;;2330639;57;21169;-78
2021/12/10 10:29:50;;;;;;;55.90;22.62;;;;;;;;;;2329756;57;21140;-78
2021/12/10 10:32:19;;;;;;;57.35;21.80;;;;;;;;;;2573865;54;21030;-77
2021/12/10 10:34:48;;;;;;;59.60;22.95;;;;;;;;;;2330191;57;21125;-77
2021/12/10 10:37:16;;;;;;;62.42;21.85;;;;;;;;;;2330378;57;21029;-78
2021/12/10 10:39:43;;;;;;;66.07;24.65;;;;;;;;;;2330227;57;21049;-78
2021/12/10 10:42:15;;;;;;;47.65;19.35;;;;;;;;;;2330245;57;21145;-77
2021/12/10 10:44:43;;;;;;;59.83;22.27;;;;;;;;;;2574324;54;21097;-77
2021/12/10 10:47:11;;;;;;;49.53;20.37;;;;;;;;;;2574117;54;21659;-78
2021/12/10 10:49:39;;;;;;;57.45;22.27;;;;;;;;;;2573353;54;21064;-77
2021/12/10 10:52:14;;;;;;;54.83;22.27;;;;;;;;;;2330449;57;21100;-78
2021/12/10 10:54:41;;;;;;;57.92;23.25;;;;;;;;;;2329987;57;21073;-79
2021/12/10 10:57:13;;;;;;;56.20;22.58;;;;;;;;;;2575702;54;21053;-80
2021/12/10 10:59:42;;;;;;;57.83;22.58;;;;;;;;;;2332050;57;21101;-75
2021/12/10 11:02:11;;;;;;;63.03;23.62;;;;;;;;;;2332721;57;21065;-81
2021/12/10 11:04:40;;;;;;;57.65;22.98;;;;;;;;;;2575022;54;21045;-76
2021/12/10 11:07:10;;;;;;;65.72;25.23;;;;;;;;;;2332320;57;21049;-79
2021/12/10 11:09:53;;;;;;;57.33;21.62;;;;;;;;;;2334075;57;21041;-78
2021/12/10 11:12:21;;;;;;;59.20;21.98;;;;;;;;;;2334148;57;21148;-80
2021/12/10 11:14:50;;;;;;;53.95;22.30;;;;;;;;;;2576220;54;21101;-80
2021/12/10 11:17:18;;;;;;;60.45;23.65;;;;;;;;;;2331918;57;21057;-79
2021/12/10 11:19:50;;;;;;;61.55;24.08;;;;;;;;;;2332106;57;21049;-80
2021/12/10 11:22:17;;;;;;;58.90;23.00;;;;;;;;;;2332638;57;21057;-79
2021/12/10 11:24:46;;;;;;;63.30;23.42;;;;;;;;;;2576938;54;21058;-79
2021/12/10 11:27:20;;;;;;;58.42;24.27;;;;;;;;;;2332573;57;21128;-79
2021/12/10 11:29:50;;;;;;;62.88;23.40;;;;;;;;;;2330835;57;21120;-79
2021/12/10 11:32:19;;;;;;;54.38;22.52;;;;;;;;;;2331401;57;21100;-80
2021/12/10 11:34:52;;;;;;;60.45;23.15;;;;;;;;;;2331656;57;21173;-78
2021/12/10 11:37:39;;;;;;;61.60;23.62;;;;;;;;;;2575420;54;21054;-81
2021/12/10 11:40:10;;;;;;;54.35;20.85;;;;;;;;;;2329890;57;21140;-81
2021/12/10 11:42:45;;;;;;;63.97;23.73;;;;;;;;;;2574995;54;21386;-79
2021/12/10 11:45:33;;;;;;;62.75;24.75;;;;;;;;;;2575467;54;21664;-79
2021/12/10 11:48:07;;;;;;;58.45;21.87;;;;;;;;;;2575531;54;21068;-78
2021/12/10 11:50:35;;;;;;;58.38;23.70;;;;;;;;;;2574783;54;21065;-79
2021/12/10 11:53:04;;;;;;;63.97;23.73;;;;;;;;;;2331752;57;21581;-79
2021/12/10 11:55:33;;;;;;;55.83;22.02;;;;;;;;;;2575909;54;21081;-79
2021/12/10 11:58:00;;;;;;;55.22;22.33;;;;;;;;;;2575972;54;21061;-79
2021/12/10 12:00:29;;;;;;;55.85;22.90;;;;;;;;;;2574964;54;21112;-80
2021/12/10 12:02:58;;;;;;;58.35;22.37;;;;;;;;;;2331009;57;21065;-79
2021/12/10 12:05:27;;;;;;;56.05;21.98;;;;;;;;;;2574963;54;21117;-79
2021/12/10 12:07:55;;;;;;;55.85;22.08;;;;;;;;;;2330546;57;21045;-75
2021/12/10 12:10:27;;;;;;;62.80;23.65;;;;;;;;;;2330408;57;21054;-79
2021/12/10 12:12:56;;;;;;;59.80;22.60;;;;;;;;;;2574673;54;21041;-79
2021/12/10 12:15:28;;;;;;;58.33;24.30;;;;;;;;;;2330340;57;21104;-78
2021/12/10 12:17:57;;;;;;;64.05;23.58;;;;;;;;;;2329469;57;21558;-78
2021/12/10 12:20:46;;;;;;;67.97;24.23;;;;;;;;;;2330867;57;21065;-79
2021/12/10 12:26:05;;;;;;;59.50;21.40;;;;;;;;;;2331021;57;20977;-79
2021/12/10 12:28:32;;;;;;;59.38;21.35;;;;;;;;;;2330862;57;21097;-78
2021/12/10 12:31:02;;;;;;;60.75;21.65;;;;;;;;;;2574539;54;21045;-79
2021/12/10 12:33:30;;;;;;;60.80;23.55;;;;;;;;;;2330481;57;21362;-79
2021/12/10 12:35:57;;;;;;;57.95;22.75;;;;;;;;;;2575600;54;21128;-80
2021/12/10 12:38:27;;;;;;;64.70;24.23;;;;;;;;;;2575140;54;21061;-79
2021/12/10 12:41:10;;;;;;;55.03;21.42;;;;;;;;;;2331699;57;21624;-79
2021/12/10 12:43:37;;;;;;;60.88;22.67;;;;;;;;;;2575521;54;21050;-79
2021/12/10 12:46:05;;;;;;;59.25;22.52;;;;;;;;;;2575256;54;21196;-78
2021/12/10 12:48:32;;;;;;;65.35;23.17;;;;;;;;;;2330934;57;21075;-77
2021/12/10 12:51:07;;;;;;;51.47;21.00;;;;;;;;;;2330314;57;21065;-78
2021/12/10 12:53:36;;;;;;;55.20;22.08;;;;;;;;;;2330269;57;21056;-78
2021/12/10 12:56:07;;;;;;;54.70;21.95;;;;;;;;;;2573956;54;21073;-77
2021/12/10 12:58:38;;;;;;;57.72;22.50;;;;;;;;;;2330513;57;21132;-77
2021/12/10 13:01:09;;;;;;;58.08;22.48;;;;;;;;;;2573774;54;21053;-77
2021/12/10 13:03:39;;;;;;;56.90;22.33;;;;;;;;;;2328901;57;21069;-75
2021/12/10 13:06:10;;;;;;;53.60;21.40;;;;;;;;;;2329358;57;21053;-76
2021/12/10 13:08:39;;;;;;;60.90;21.85;;;;;;;;;;2329950;57;21605;-77
2021/12/10 13:11:09;;;;;;;53.72;21.87;;;;;;;;;;2574262;54;21100;-78
2021/12/10 13:13:39;;;;;;;53.15;20.98;;;;;;;;;;2573825;54;21053;-77
2021/12/10 13:16:08;;;;;;;58.90;22.90;;;;;;;;;;2330580;57;21152;-77
2021/12/10 13:18:37;;;;;;;56.90;21.08;;;;;;;;;;2330257;57;21136;-77
2021/12/10 13:21:04;;;;;;;52.50;20.25;;;;;;;;;;2573933;54;21069;-78
2021/12/10 13:23:31;;;;;;;57.45;21.70;;;;;;;;;;2330128;57;21565;-77
2021/12/10 13:26:00;;;;;;;54.53;21.25;;;;;;;;;;2330364;57;21132;-77
2021/12/10 13:28:27;;;;;;;51.05;20.83;;;;;;;;;;2330653;57;21100;-77
2021/12/10 13:30:57;;;;;;;54.60;22.98;;;;;;;;;;2330279;57;21140;-77
2021/12/10 13:33:26;;;;;;;52.53;21.08;;;;;;;;;;2330385;57;21060;-77
2021/12/10 13:35:53;;;;;;;56.33;21.20;;;;;;;;;;2573770;54;21097;-77
2021/12/10 13:38:20;;;;;;;57.33;22.13;;;;;;;;;;2330315;57;21129;-77
2021/12/10 13:40:49;;;;;;;56.53;21.05;;;;;;;;;;2572900;54;21057;-77
2021/12/10 13:43:16;;;;;;;60.72;22.15;;;;;;;;;;2329615;57;21550;-77
2021/12/10 13:45:46;;;;;;;56.42;20.80;;;;;;;;;;2330133;57;21057;-78
2021/12/10 13:48:14;;;;;;;58.47;23.52;;;;;;;;;;2574443;54;21049;-80
2021/12/10 13:50:44;;;;;;;54.00;22.13;;;;;;;;;;2330553;57;21183;-78
2021/12/10 13:53:13;;;;;;;51.90;20.60;;;;;;;;;;2330341;57;21738;-78
2021/12/10 13:55:42;;;;;;;56.72;20.33;;;;;;;;;;2330761;57;21124;-78
2021/12/10 13:58:10;;;;;;;60.58;22.17;;;;;;;;;;2331330;57;21104;-78
2021/12/10 14:00:37;;;;;;;57.62;21.75;;;;;;;;;;2330468;57;21097;-77
2021/12/10 14:03:04;;;;;;;55.22;20.85;;;;;;;;;;2574434;54;21572;-77
2021/12/10 14:05:36;;;;;;;56.88;20.80;;;;;;;;;;2330814;57;21049;-77
2021/12/10 14:08:08;;;;;;;56.35;22.13;;;;;;;;;;2331184;57;21052;-78
2021/12/10 14:10:40;;;;;;;53.55;21.77;;;;;;;;;;2332241;57;21064;-77
2021/12/10 14:13:09;;;;;;;53.65;22.10;;;;;;;;;;2331016;57;21125;-77
2021/12/10 14:15:43;;;;;;;55.03;21.10;;;;;;;;;;2333671;57;21037;-77
2021/12/10 14:18:14;;;;;;;51.97;19.77;;;;;;;;;;2332230;57;21065;-77
2021/12/10 14:20:43;;;;;;;52.47;21.08;;;;;;;;;;2573833;54;21068;-76
2021/12/10 14:23:14;;;;;;;45.03;19.23;;;;;;;;;;2573862;54;21045;-81
2021/12/10 14:25:45;;;;;;;48.83;20.60;;;;;;;;;;2330453;57;21132;-78
2021/12/10 14:28:13;;;;;;;45.72;19.77;;;;;;;;;;2574396;54;21165;-77
2021/12/10 14:30:43;;;;;;;55.80;21.65;;;;;;;;;;2329792;57;21069;-76
2021/12/10 14:33:12;;;;;;;51.37;20.65;;;;;;;;;;2329883;57;21161;-77
2021/12/10 14:35:42;;;;;;;56.75;21.75;;;;;;;;;;2329768;57;21077;-77